Time;durP1;ratioP1;P1;durP2;ratioP2;P2;SDS_P1;SDS_P2;PMS_P1;PMS_P2;Temp;Humidity;BMP_temperature;BMP_pressure;BME280_temperature;BME280_humidity;BME280_pressure;Samples;Min_cycle;Max_cycle;Signal;HPM_P1;HPM_P2
2021/01/19 00:01:42;;;;;;;32.65;20.80;;;5.90;98.30;;;;;;5053555;28;20032;-84
2021/01/19 00:04:09;;;;;;;28.50;20.17;;;5.90;98.30;;;;;;5033965;28;20044;-82
2021/01/19 00:06:37;;;;;;;31.35;21.83;;;5.90;98.30;;;;;;5068411;28;20052;-82
2021/01/19 00:09:04;;;;;;;31.87;21.53;;;5.90;98.30;;;;;;5047993;28;20502;-83
2021/01/19 00:11:31;;;;;;;31.08;21.70;;;5.90;98.30;;;;;;5080650;28;20064;-83
2021/01/19 00:13:58;;;;;;;28.58;20.73;;;5.90;98.30;;;;;;5073057;28;20122;-84
2021/01/19 00:16:24;;;;;;;35.58;21.73;;;6.00;98.30;;;;;;5047920;28;20087;-86
2021/01/19 00:18:51;;;;;;;32.03;21.17;;;6.00;98.30;;;;;;5064329;28;20055;-84
2021/01/19 00:21:19;;;;;;;30.77;19.67;;;6.00;98.30;;;;;;5081127;28;20411;-86
2021/01/19 00:23:47;;;;;;;25.50;20.35;;;6.00;98.30;;;;;;5031305;28;20040;-86
2021/01/19 00:26:14;;;;;;;29.50;20.60;;;6.00;98.20;;;;;;5048188;28;20043;-85
2021/01/19 00:28:41;;;;;;;30.70;18.55;;;6.00;98.20;;;;;;5061394;28;20566;-85
2021/01/19 00:31:08;;;;;;;26.60;17.92;;;6.00;98.20;;;;;;5069477;28;20039;-83
2021/01/19 00:33:35;;;;;;;28.80;19.00;;;6.00;98.20;;;;;;5065263;28;20029;-85
2021/01/19 00:36:02;;;;;;;25.92;16.05;;;6.00;98.10;;;;;;5034081;28;20032;-85
2021/01/19 00:38:29;;;;;;;26.92;17.25;;;6.00;98.10;;;;;;5047722;28;20055;-86
2021/01/19 00:40:56;;;;;;;27.70;14.98;;;6.00;98.10;;;;;;5046316;28;20033;-83
2021/01/19 00:43:22;;;;;;;27.65;14.60;;;6.00;98.00;;;;;;5048065;28;20048;-84
2021/01/19 00:45:49;;;;;;;20.05;11.65;;;6.00;98.00;;;;;;5062878;28;20029;-84
2021/01/19 00:48:17;;;;;;;22.42;11.80;;;5.90;98.20;;;;;;5064387;28;20059;-86
2021/01/19 00:50:44;;;;;;;21.98;11.27;;;5.90;97.90;;;;;;5039232;28;20059;-83
2021/01/19 00:53:11;;;;;;;26.27;12.00;;;5.90;97.80;;;;;;5055029;28;20036;-84
2021/01/19 00:55:38;;;;;;;20.10;11.35;;;5.90;97.80;;;;;;5033120;28;20495;-84
2021/01/19 00:58:06;;;;;;;21.67;10.35;;;5.90;97.80;;;;;;5034625;28;20468;-83
2021/01/19 01:00:36;;;;;;;17.17;9.63;;;5.90;97.70;;;;;;5034356;28;20044;-84
2021/01/19 01:03:03;;;;;;;17.73;9.40;;;5.90;97.70;;;;;;5050418;28;20040;-84
2021/01/19 01:05:30;;;;;;;19.25;8.88;;;5.90;97.70;;;;;;5000556;28;20487;-83
2021/01/19 01:07:58;;;;;;;18.45;8.20;;;5.90;97.60;;;;;;5033045;28;20039;-84
2021/01/19 01:10:25;;;;;;;22.20;8.40;;;5.80;97.50;;;;;;5027999;28;20389;-84
2021/01/19 01:12:51;;;;;;;17.70;7.95;;;5.90;97.60;;;;;;5031368;28;20464;-86
2021/01/19 01:15:42;;;;;;;16.02;7.45;;;5.90;97.50;;;;;;5032027;28;20040;-85
2021/01/19 01:18:13;;;;;;;14.63;6.75;;;5.80;97.50;;;;;;5065803;28;20071;-86
2021/01/19 01:20:41;;;;;;;18.35;6.57;;;5.80;97.40;;;;;;5033824;28;20040;-86
2021/01/19 01:23:13;;;;;;;13.40;5.50;;;5.80;97.40;;;;;;5033118;28;20770;-85
2021/01/19 01:25:41;;;;;;;15.88;5.72;;;5.80;97.40;;;;;;5052245;28;20048;-83
2021/01/19 01:28:10;;;;;;;12.07;5.00;;;5.80;97.40;;;;;;5034288;28;20060;-82
2021/01/19 01:30:37;;;;;;;15.30;5.38;;;5.80;97.40;;;;;;5065366;28;20067;-84
2021/01/19 01:33:04;;;;;;;22.88;5.70;;;5.80;97.30;;;;;;5018008;28;20045;-83
2021/01/19 01:35:30;;;;;;;14.80;4.43;;;5.80;97.30;;;;;;5033425;28;20554;-83
2021/01/19 01:37:57;;;;;;;19.42;5.03;;;5.80;97.30;;;;;;5066009;28;20379;-83
2021/01/19 01:40:25;;;;;;;17.90;4.80;;;5.80;97.50;;;;;;5031346;28;20495;-82
2021/01/19 01:42:59;;;;;;;17.33;5.15;;;5.80;97.30;;;;;;5053485;28;20036;-83
2021/01/19 01:45:28;;;;;;;13.23;4.00;;;5.80;97.20;;;;;;5066686;28;20041;-83
2021/01/19 01:47:57;;;;;;;15.35;4.28;;;5.70;97.20;;;;;;5049049;28;20427;-83
2021/01/19 01:50:25;;;;;;;13.65;3.75;;;5.80;97.20;;;;;;5034275;28;20056;-83
2021/01/19 01:52:52;;;;;;;15.80;3.83;;;5.70;97.10;;;;;;5033010;28;20037;-82
2021/01/19 01:55:19;;;;;;;13.68;3.53;;;5.70;97.00;;;;;;5009085;28;20036;-84
2021/01/19 01:57:47;;;;;;;16.58;4.15;;;5.70;96.80;;;;;;5032335;28;20479;-82
2021/01/19 02:00:14;;;;;;;11.57;3.17;;;5.60;96.80;;;;;;5046846;28;20045;-83
2021/01/19 02:02:48;;;;;;;16.02;3.75;;;5.60;96.80;;;;;;5034049;28;20519;-83
2021/01/19 02:05:15;;;;;;;10.35;2.80;;;5.60;96.70;;;;;;5066106;28;20347;-82
2021/01/19 02:08:12;;;;;;;16.27;3.20;;;5.50;96.70;;;;;;5032577;28;20494;-82
2021/01/19 02:10:56;;;;;;;10.90;2.47;;;5.50;96.80;;;;;;5048600;28;20327;-85
2021/01/19 02:13:58;;;;;;;12.40;3.30;;;5.50;96.80;;;;;;5064516;28;20403;-87
2021/01/19 02:16:45;;;;;;;10.75;2.72;;;5.40;96.80;;;;;;5047334;28;20045;-85
2021/01/19 02:19:33;;;;;;;13.68;2.55;;;5.40;96.70;;;;;;5049183;28;20040;-82
2021/01/19 02:22:38;;;;;;;12.55;2.65;;;5.40;96.80;;;;;;5030127;28;20709;-82
2021/01/19 02:25:10;;;;;;;12.65;2.95;;;5.40;96.70;;;;;;5031523;28;20490;-86
2021/01/19 02:27:49;;;;;;;12.35;2.45;;;5.40;96.70;;;;;;5066988;28;20463;-85
2021/01/19 02:30:47;;;;;;;13.25;2.30;;;5.50;96.70;;;;;;5069065;28;20045;-85
2021/01/19 02:33:25;;;;;;;11.77;2.55;;;5.40;96.60;;;;;;5043066;28;20056;-83
2021/01/19 02:36:01;;;;;;;15.73;2.50;;;5.40;96.50;;;;;;5061522;28;20041;-83
2021/01/19 02:38:39;;;;;;;8.85;1.50;;;5.40;96.50;;;;;;5049002;28;20139;-83
2021/01/19 02:41:07;;;;;;;10.38;1.70;;;5.50;96.50;;;;;;5050213;28;20029;-83
2021/01/19 02:43:38;;;;;;;13.65;2.17;;;5.50;96.40;;;;;;5032633;28;20044;-83
2021/01/19 02:46:05;;;;;;;8.27;2.15;;;5.50;96.30;;;;;;5049153;28;20043;-84
2021/01/19 02:48:33;;;;;;;13.77;2.33;;;5.50;96.30;;;;;;5069042;28;20032;-83
2021/01/19 02:50:59;;;;;;;10.77;2.20;;;5.50;96.10;;;;;;5065494;28;20043;-83
2021/01/19 02:53:27;;;;;;;9.02;1.98;;;5.50;96.00;;;;;;5046795;28;20033;-83
2021/01/19 02:55:53;;;;;;;13.25;1.98;;;5.50;96.00;;;;;;5032051;28;20036;-83
2021/01/19 02:58:44;;;;;;;9.55;1.50;;;5.50;96.00;;;;;;5013273;28;20044;-83
2021/01/19 03:01:26;;;;;;;12.85;2.00;;;5.50;96.00;;;;;;5049265;28;20490;-83
2021/01/19 03:03:53;;;;;;;16.55;2.67;;;5.50;95.90;;;;;;5043643;28;20083;-82
2021/01/19 03:06:22;;;;;;;13.15;2.08;;;5.50;95.80;;;;;;5025970;28;20444;-83
2021/01/19 03:08:51;;;;;;;17.40;2.70;;;5.50;95.80;;;;;;5056386;28;20032;-83
2021/01/19 03:11:19;;;;;;;12.90;2.63;;;5.50;95.80;;;;;;5048009;28;20044;-83
2021/01/19 03:13:47;;;;;;;12.50;2.10;;;5.50;95.70;;;;;;5065084;28;20036;-82
2021/01/19 03:16:16;;;;;;;10.63;2.38;;;5.40;95.70;;;;;;5064639;28;20037;-83
2021/01/19 03:18:44;;;;;;;11.95;2.50;;;5.40;95.70;;;;;;5051426;28;20045;-81
2021/01/19 03:21:11;;;;;;;14.27;2.28;;;5.40;95.60;;;;;;5055369;28;20044;-83
2021/01/19 03:23:39;;;;;;;11.43;2.75;;;5.40;95.60;;;;;;5032185;28;20040;-83
2021/01/19 03:26:07;;;;;;;9.98;2.25;;;5.40;95.70;;;;;;5053031;28;20041;-82
2021/01/19 03:28:35;;;;;;;16.45;2.88;;;5.40;95.70;;;;;;5031249;28;20033;-82
2021/01/19 03:31:02;;;;;;;9.07;2.40;;;5.40;95.80;;;;;;5033998;28;20403;-82
2021/01/19 03:33:29;;;;;;;11.18;2.85;;;5.30;95.80;;;;;;5048843;28;20052;-81
2021/01/19 03:35:55;;;;;;;11.30;3.13;;;5.30;95.80;;;;;;5039043;28;20499;-82
2021/01/19 03:38:22;;;;;;;11.43;3.38;;;5.30;95.90;;;;;;5018032;28;20053;-82
2021/01/19 03:40:49;;;;;;;14.82;4.13;;;5.30;95.90;;;;;;5033527;28;20033;-83
2021/01/19 03:43:15;;;;;;;13.27;3.28;;;5.30;96.00;;;;;;5030880;28;20365;-83
2021/01/19 03:45:42;;;;;;;13.02;3.38;;;5.20;96.00;;;;;;5014524;28;20487;-82
2021/01/19 03:48:09;;;;;;;18.98;4.20;;;5.20;96.10;;;;;;5016957;28;20490;-83
2021/01/19 03:50:35;;;;;;;14.80;4.13;;;5.20;96.10;;;;;;5034959;28;20407;-83
2021/01/19 03:53:02;;;;;;;18.23;4.72;;;5.20;96.20;;;;;;5022119;28;20052;-83
2021/01/19 03:55:30;;;;;;;15.02;4.75;;;5.20;96.20;;;;;;5050541;28;20053;-85
2021/01/19 03:57:57;;;;;;;17.10;5.20;;;5.10;96.30;;;;;;5018197;28;20033;-87
2021/01/19 04:00:26;;;;;;;16.77;5.30;;;5.20;96.40;;;;;;5039368;28;20037;-86
2021/01/19 04:02:53;;;;;;;17.17;4.82;;;5.20;96.50;;;;;;5007215;28;20029;-85
2021/01/19 04:05:20;;;;;;;17.48;6.00;;;5.10;96.50;;;;;;5054196;28;20393;-86
2021/01/19 04:07:46;;;;;;;12.13;4.40;;;5.10;96.60;;;;;;5058284;28;20057;-87
2021/01/19 04:10:14;;;;;;;16.97;5.43;;;5.10;96.60;;;;;;5069022;28;20048;-87
2021/01/19 04:12:44;;;;;;;19.40;7.20;;;5.10;96.70;;;;;;5019452;28;20041;-87
2021/01/19 04:15:11;;;;;;;17.27;6.23;;;5.00;96.70;;;;;;5060638;28;20036;-87
2021/01/19 04:17:38;;;;;;;16.63;6.27;;;5.00;96.90;;;;;;5061971;28;20052;-87
2021/01/19 04:20:09;;;;;;;17.17;5.85;;;5.00;97.00;;;;;;5041375;28;20049;-86
2021/01/19 04:22:35;;;;;;;20.88;7.53;;;5.00;97.10;;;;;;5056367;28;20040;-86
2021/01/19 04:25:07;;;;;;;15.90;6.20;;;5.00;97.20;;;;;;5043086;28;20033;-87
2021/01/19 04:27:33;;;;;;;17.88;7.05;;;5.00;97.20;;;;;;5043408;28;20478;-87
2021/01/19 04:30:04;;;;;;;15.38;7.60;;;5.00;97.30;;;;;;5043787;28;20037;-86
2021/01/19 04:32:30;;;;;;;21.83;9.90;;;5.00;97.40;;;;;;5039871;28;20033;-83
2021/01/19 04:34:57;;;;;;;20.55;8.23;;;5.00;97.50;;;;;;5032128;28;20037;-83
2021/01/19 04:37:23;;;;;;;25.48;8.23;;;5.00;97.50;;;;;;5050788;28;20053;-83
2021/01/19 04:39:50;;;;;;;20.15;8.45;;;5.00;97.60;;;;;;5044931;28;20045;-83
2021/01/19 04:42:18;;;;;;;20.80;10.63;;;5.00;97.70;;;;;;5034058;28;20036;-83
2021/01/19 04:44:47;;;;;;;17.53;7.53;;;5.00;97.80;;;;;;5063036;28;20043;-84
2021/01/19 04:47:15;;;;;;;18.17;7.80;;;5.00;97.80;;;;;;5034676;28;20041;-83
2021/01/19 04:49:44;;;;;;;19.20;8.15;;;5.00;97.80;;;;;;5034644;28;20036;-83
2021/01/19 04:52:17;;;;;;;13.87;7.07;;;5.00;97.90;;;;;;5050765;28;20395;-84
2021/01/19 04:55:02;;;;;;;;;;;5.00;97.90;;;;;;5051349;28;20051;-83
2021/01/19 04:57:30;;;;;;;16.83;8.32;;;5.00;97.90;;;;;;5029734;28;19912;-83
2021/01/19 05:00:03;;;;;;;17.38;8.23;;;5.00;98.00;;;;;;5034455;28;20042;-83
2021/01/19 05:02:37;;;;;;;14.32;6.97;;;5.00;98.00;;;;;;5071131;28;20495;-83
2021/01/19 05:05:32;;;;;;;15.73;9.02;;;5.00;98.10;;;;;;5064706;28;20491;-83
2021/01/19 05:08:08;;;;;;;13.65;6.68;;;5.00;98.10;;;;;;5025824;28;20055;-83
2021/01/19 05:10:36;;;;;;;15.90;7.93;;;5.00;98.10;;;;;;5049503;28;20045;-83
2021/01/19 05:13:11;;;;;;;14.07;6.97;;;5.10;98.20;;;;;;5050425;28;20036;-83
2021/01/19 05:15:48;;;;;;;19.67;9.57;;;5.10;98.20;;;;;;5035183;28;20162;-82
2021/01/19 05:18:16;;;;;;;14.03;7.50;;;5.10;98.20;;;;;;5017081;28;20087;-84
2021/01/19 05:20:51;;;;;;;15.60;9.02;;;5.10;98.30;;;;;;5052963;28;20028;-83
2021/01/19 05:23:22;;;;;;;13.73;7.47;;;5.10;98.30;;;;;;5048087;28;20048;-83
2021/01/19 05:25:56;;;;;;;19.85;7.60;;;5.10;98.40;;;;;;5029244;28;20040;-84
2021/01/19 05:28:47;;;;;;;12.85;6.68;;;5.10;98.40;;;;;;5003540;28;20045;-83
2021/01/19 05:31:14;;;;;;;11.95;6.53;;;5.10;98.40;;;;;;5043173;28;20041;-83
2021/01/19 05:33:54;;;;;;;13.77;6.90;;;5.10;98.40;;;;;;5049774;28;20041;-83
2021/01/19 05:36:23;;;;;;;14.67;6.83;;;5.10;98.50;;;;;;5051014;28;20044;-82
2021/01/19 05:38:53;;;;;;;12.48;6.43;;;5.10;98.50;;;;;;5050405;28;20052;-83
2021/01/19 05:41:35;;;;;;;12.68;6.78;;;5.10;98.60;;;;;;5035036;28;20033;-82
2021/01/19 05:44:16;;;;;;;8.70;6.28;;;5.10;98.60;;;;;;5028487;28;20032;-83
2021/01/19 05:46:43;;;;;;;8.93;6.15;;;5.10;98.60;;;;;;5048453;28;21209;-83
2021/01/19 05:49:14;;;;;;;8.93;6.00;;;5.10;98.60;;;;;;5051965;28;20041;-83
2021/01/19 05:51:42;;;;;;;15.15;6.50;;;5.10;98.60;;;;;;5048613;28;20043;-83
2021/01/19 05:54:19;;;;;;;11.50;6.63;;;5.10;98.70;;;;;;5048925;28;20052;-83
2021/01/19 05:56:48;;;;;;;11.00;6.70;;;5.10;98.70;;;;;;5062778;28;20040;-82
2021/01/19 05:59:30;;;;;;;8.32;5.05;;;5.10;98.70;;;;;;5016855;28;20499;-83
2021/01/19 06:01:58;;;;;;;16.08;8.43;;;5.20;98.80;;;;;;5048637;28;20045;-83
2021/01/19 06:04:36;;;;;;;12.27;8.10;;;5.20;98.80;;;;;;5033320;28;20494;-83
2021/01/19 06:07:04;;;;;;;11.65;7.25;;;5.20;98.80;;;;;;5032250;28;20032;-82
2021/01/19 06:09:32;;;;;;;10.65;6.80;;;5.20;98.80;;;;;;5031265;28;20809;-82
2021/01/19 06:11:59;;;;;;;15.17;7.40;;;5.20;98.90;;;;;;5046241;28;20047;-82
2021/01/19 06:14:29;;;;;;;13.73;8.50;;;5.20;98.90;;;;;;5033941;28;20048;-85
2021/01/19 06:17:10;;;;;;;9.30;7.38;;;5.20;98.90;;;;;;5049953;28;20037;-85
2021/01/19 06:19:38;;;;;;;9.02;6.53;;;5.20;98.90;;;;;;5050232;28;20049;-85
2021/01/19 06:22:07;;;;;;;11.38;5.80;;;5.30;99.00;;;;;;5050380;28;20839;-85
2021/01/19 06:24:40;;;;;;;7.47;5.80;;;5.30;99.00;;;;;;5035704;28;20024;-85
2021/01/19 06:27:08;;;;;;;10.60;6.20;;;5.30;99.00;;;;;;5069709;28;20034;-86
2021/01/19 06:29:36;;;;;;;10.77;6.40;;;5.40;99.00;;;;;;5017329;28;20044;-87
2021/01/19 06:32:05;;;;;;;10.57;6.68;;;5.40;99.00;;;;;;5050536;28;20047;-86
2021/01/19 06:34:38;;;;;;;10.02;6.40;;;5.40;99.00;;;;;;5035003;28;20435;-85
2021/01/19 06:37:09;;;;;;;14.68;7.93;;;5.40;99.10;;;;;;5017427;28;20049;-86
2021/01/19 06:39:39;;;;;;;8.95;7.28;;;5.40;99.10;;;;;;5017434;28;20036;-86
2021/01/19 06:42:07;;;;;;;9.75;6.82;;;5.40;99.10;;;;;;5031012;28;20104;-85
2021/01/19 06:44:47;;;;;;;14.70;7.17;;;5.40;99.10;;;;;;5065639;28;20032;-86
2021/01/19 06:47:18;;;;;;;7.13;5.43;;;5.40;99.20;;;;;;5048111;28;20048;-86
2021/01/19 06:49:45;;;;;;;9.63;5.97;;;5.40;99.20;;;;;;5048772;28;20047;-86
2021/01/19 06:52:14;;;;;;;9.82;5.70;;;5.50;99.20;;;;;;5034682;28;20036;-85
2021/01/19 06:54:53;;;;;;;11.40;6.63;;;5.40;99.20;;;;;;5033561;28;20036;-87
2021/01/19 06:57:47;;;;;;;9.33;4.93;;;5.50;99.30;;;;;;5031090;28;20048;-86
2021/01/19 07:00:20;;;;;;;11.85;7.43;;;5.50;99.30;;;;;;5050238;28;20042;-86
2021/01/19 07:02:51;;;;;;;;;;;5.50;99.30;;;;;;5058278;28;20045;-87
2021/01/19 07:05:22;;;;;;;9.32;5.40;;;5.50;99.30;;;;;;5035950;28;19909;-86
2021/01/19 07:08:24;;;;;;;7.80;5.38;;;5.50;99.30;;;;;;5050366;28;20045;-87
2021/01/19 07:11:04;;;;;;;8.27;6.20;;;5.60;99.40;;;;;;5035414;28;20036;-87
2021/01/19 07:13:37;;;;;;;6.68;4.28;;;5.60;99.30;;;;;;5033423;28;20044;-86
2021/01/19 07:16:08;;;;;;;5.53;4.88;;;5.60;99.40;;;;;;5032581;28;20040;-86
2021/01/19 07:18:44;;;;;;;9.07;6.05;;;5.60;99.40;;;;;;5033325;28;20049;-86
2021/01/19 07:21:16;;;;;;;9.27;6.75;;;5.70;99.40;;;;;;5049343;28;20044;-87
2021/01/19 07:23:48;;;;;;;8.88;7.13;;;5.60;99.40;;;;;;5035816;28;20029;-85
2021/01/19 07:26:45;;;;;;;7.63;6.15;;;5.70;99.40;;;;;;5047827;28;20048;-83
2021/01/19 07:29:14;;;;;;;5.90;5.00;;;5.70;99.70;;;;;;5029300;28;20133;-85
2021/01/19 07:31:41;;;;;;;7.65;5.20;;;5.70;99.40;;;;;;5047905;28;20259;-85
2021/01/19 07:34:09;;;;;;;7.07;5.53;;;5.70;99.40;;;;;;5037262;28;20511;-85
2021/01/19 07:36:36;;;;;;;7.20;5.75;;;5.70;99.50;;;;;;5031591;28;20028;-87
2021/01/19 07:39:13;;;;;;;10.73;7.53;;;5.70;99.50;;;;;;5016121;28;20048;-86
2021/01/19 07:41:40;;;;;;;7.07;5.82;;;5.70;99.50;;;;;;5036590;28;20036;-85
2021/01/19 07:44:07;;;;;;;6.07;4.13;;;5.80;99.60;;;;;;5016450;28;20807;-86
2021/01/19 07:46:33;;;;;;;9.88;6.05;;;5.80;99.60;;;;;;5014290;28;20076;-86
2021/01/19 07:49:04;;;;;;;4.97;4.40;;;5.80;99.60;;;;;;5019762;28;20041;-84
2021/01/19 07:51:47;;;;;;;6.97;4.07;;;5.80;99.60;;;;;;5046175;28;20041;-86
2021/01/19 07:54:20;;;;;;;5.68;5.07;;;5.80;99.60;;;;;;5048885;28;20039;-85
2021/01/19 07:56:47;;;;;;;7.40;4.55;;;5.90;99.60;;;;;;5062407;28;20394;-85
2021/01/19 07:59:15;;;;;;;7.40;5.05;;;5.90;99.60;;;;;;5028604;28;20067;-85
2021/01/19 08:01:59;;;;;;;9.70;5.78;;;5.90;99.70;;;;;;5068012;28;20047;-85
2021/01/19 08:04:30;;;;;;;9.85;5.85;;;5.90;99.70;;;;;;5023590;28;20048;-85
2021/01/19 08:06:57;;;;;;;7.57;5.47;;;5.90;99.70;;;;;;5035900;28;20041;-86
2021/01/19 08:09:24;;;;;;;10.10;6.47;;;5.90;99.70;;;;;;5036503;28;20044;-85
2021/01/19 08:12:04;;;;;;;9.63;6.25;;;6.00;99.70;;;;;;5019277;28;20036;-85
2021/01/19 08:14:36;;;;;;;8.47;5.17;;;6.00;99.80;;;;;;5035594;28;20024;-85
2021/01/19 08:17:05;;;;;;;10.20;6.63;;;6.00;99.80;;;;;;5021842;28;20529;-86
2021/01/19 08:19:43;;;;;;;8.85;6.97;;;6.00;99.90;;;;;;5035926;28;20044;-85
2021/01/19 08:22:11;;;;;;;6.80;5.00;;;6.10;99.80;;;;;;5051285;28;20040;-86
2021/01/19 08:24:42;;;;;;;9.77;6.38;;;6.00;99.80;;;;;;5018746;28;20040;-85
2021/01/19 08:27:10;;;;;;;8.18;6.20;;;6.10;99.90;;;;;;5052287;28;20494;-86
2021/01/19 08:29:54;;;;;;;7.88;5.53;;;6.10;99.90;;;;;;5052318;28;20040;-89
2021/01/19 08:32:21;;;;;;;10.32;6.55;;;6.10;99.90;;;;;;5050310;28;20387;-85
2021/01/19 08:34:51;;;;;;;6.82;5.47;;;6.20;99.90;;;;;;5055561;28;20041;-87
2021/01/19 08:37:19;;;;;;;6.68;5.30;;;6.20;99.90;;;;;;5056287;28;20071;-88
2021/01/19 08:39:53;;;;;;;6.95;5.30;;;6.20;99.90;;;;;;5041727;28;20039;-87
2021/01/19 08:42:21;;;;;;;8.10;5.35;;;6.20;99.90;;;;;;5034667;28;20044;-83
2021/01/19 08:44:58;;;;;;;6.35;4.95;;;6.30;99.90;;;;;;5052060;28;20043;-86
2021/01/19 08:47:36;;;;;;;11.45;6.40;;;6.30;99.90;;;;;;5046546;28;20036;-87
2021/01/19 08:50:14;;;;;;;5.47;4.38;;;6.30;99.90;;;;;;5052149;28;20052;-90
2021/01/19 08:52:47;;;;;;;5.53;4.85;;;6.40;99.90;;;;;;5035308;28;20815;-89
2021/01/19 08:55:15;;;;;;;8.25;5.35;;;6.40;99.90;;;;;;5036949;28;20033;-89
2021/01/19 08:57:43;;;;;;;10.60;6.07;;;6.40;99.90;;;;;;5049692;28;20036;-89
2021/01/19 09:00:10;;;;;;;7.55;4.68;;;6.40;99.90;;;;;;5032967;28;20033;-85
2021/01/19 09:02:37;;;;;;;9.60;7.50;;;6.50;99.90;;;;;;5054775;28;20923;-87
2021/01/19 09:05:06;;;;;;;8.93;7.30;;;6.50;99.90;;;;;;5021210;28;20862;-84
2021/01/19 09:07:35;;;;;;;10.13;6.47;;;6.50;99.90;;;;;;5034377;28;20044;-84
2021/01/19 09:10:01;;;;;;;8.75;6.57;;;6.50;99.90;;;;;;5068875;28;20040;-90
2021/01/19 09:12:31;;;;;;;6.05;5.45;;;6.60;99.90;;;;;;5029710;28;20402;-88
2021/01/19 09:14:59;;;;;;;9.93;5.30;;;6.60;99.90;;;;;;5053787;28;20040;-87
2021/01/19 09:17:29;;;;;;;8.60;5.15;;;6.60;99.90;;;;;;5041026;28;20036;-91
2021/01/19 09:20:10;;;;;;;6.57;5.93;;;6.60;99.90;;;;;;5046097;28;20395;-87
2021/01/19 09:22:37;;;;;;;6.32;5.72;;;6.60;99.90;;;;;;5023140;28;20033;-90
2021/01/19 09:25:04;;;;;;;8.73;6.72;;;6.70;99.90;;;;;;5041327;28;20032;-89
2021/01/19 09:27:32;;;;;;;7.90;6.40;;;6.70;99.90;;;;;;5052522;28;20040;-89
2021/01/19 09:30:14;;;;;;;8.52;6.60;;;6.70;99.90;;;;;;5004360;28;20499;-89
2021/01/19 09:32:43;;;;;;;8.80;6.38;;;6.70;99.90;;;;;;5034737;28;20037;-88
2021/01/19 09:35:14;;;;;;;9.57;6.70;;;6.80;99.90;;;;;;5035164;28;20032;-90
2021/01/19 09:37:42;;;;;;;6.85;5.35;;;6.80;99.90;;;;;;5066266;28;20048;-90
2021/01/19 09:40:10;;;;;;;7.25;6.45;;;6.80;99.90;;;;;;5035070;28;20141;-89
2021/01/19 09:42:41;;;;;;;9.82;7.40;;;6.80;99.90;;;;;;5034009;28;20035;-89
2021/01/19 09:45:09;;;;;;;8.25;6.70;;;6.90;99.90;;;;;;5032850;28;20994;-91
2021/01/19 09:47:39;;;;;;;9.95;7.57;;;6.90;99.90;;;;;;5032031;28;20049;-89
2021/01/19 09:50:08;;;;;;;9.15;6.80;;;6.90;99.90;;;;;;5052599;28;20487;-88
2021/01/19 09:52:43;;;;;;;6.18;5.20;;;6.90;99.90;;;;;;5015293;28;20559;-86
2021/01/19 09:55:18;;;;;;;8.13;5.82;;;7.00;99.90;;;;;;5050530;28;20048;-87
2021/01/19 09:58:04;;;;;;;9.55;7.30;;;7.00;99.90;;;;;;5052794;28;20040;-89
2021/01/19 10:00:36;;;;;;;8.40;7.05;;;7.00;99.90;;;;;;5039775;28;20033;-91
2021/01/19 10:03:15;;;;;;;9.27;7.05;;;7.10;99.90;;;;;;5034254;28;20498;-90
2021/01/19 10:05:56;;;;;;;13.38;9.52;;;7.10;99.90;;;;;;5033123;28;20037;-91
2021/01/19 10:08:23;;;;;;;15.52;9.80;;;7.10;99.90;;;;;;5035024;28;21301;-88
2021/01/19 10:10:50;;;;;;;9.77;7.60;;;7.10;99.90;;;;;;5050421;28;20509;-86
2021/01/19 10:13:23;;;;;;;13.40;10.50;;;7.20;99.90;;;;;;5022164;28;20044;-85
2021/01/19 10:16:11;;;;;;;12.35;9.35;;;7.20;99.90;;;;;;5050344;28;20076;-87
2021/01/19 10:18:42;;;;;;;12.07;8.55;;;7.20;99.90;;;;;;5048185;28;20503;-84
2021/01/19 10:21:11;;;;;;;15.93;12.52;;;7.30;99.90;;;;;;5032459;28;20086;-85
2021/01/19 10:23:38;;;;;;;10.93;9.55;;;7.30;99.90;;;;;;5048752;28;20037;-82
2021/01/19 10:26:10;;;;;;;10.05;8.80;;;7.40;99.90;;;;;;5018955;28;20028;-90
2021/01/19 10:28:42;;;;;;;12.85;9.30;;;7.40;99.90;;;;;;5035532;28;20029;-90
2021/01/19 10:31:18;;;;;;;11.73;10.32;;;7.40;99.90;;;;;;5028092;28;20040;-90
2021/01/19 10:34:04;;;;;;;15.57;12.50;;;7.50;99.90;;;;;;5035177;28;20051;-90
2021/01/19 10:36:32;;;;;;;14.02;11.45;;;7.50;99.90;;;;;;5034141;28;20513;-89
2021/01/19 10:39:10;;;;;;;14.50;11.20;;;7.50;99.90;;;;;;5033501;28;20052;-89
2021/01/19 10:41:40;;;;;;;13.20;11.75;;;7.60;99.90;;;;;;5050055;28;20051;-90
2021/01/19 10:44:16;;;;;;;10.57;9.57;;;7.60;99.90;;;;;;5067132;28;20045;-88
2021/01/19 10:46:44;;;;;;;12.45;10.60;;;7.70;99.90;;;;;;5028930;28;20488;-88
2021/01/19 10:49:14;;;;;;;16.92;13.43;;;7.70;99.90;;;;;;5038470;28;20575;-89
2021/01/19 10:51:44;;;;;;;13.15;11.73;;;7.80;99.90;;;;;;5033540;28;20052;-91
2021/01/19 10:54:11;;;;;;;14.82;12.32;;;7.80;99.90;;;;;;5034327;28;20040;-83
2021/01/19 10:56:41;;;;;;;15.23;12.27;;;7.80;99.90;;;;;;5049468;28;20044;-82
2021/01/19 10:59:14;;;;;;;13.02;10.25;;;7.90;99.90;;;;;;5031020;28;20679;-84
2021/01/19 11:01:43;;;;;;;14.93;10.38;;;8.00;99.90;;;;;;5064581;28;20048;-83
2021/01/19 11:04:09;;;;;;;12.60;9.20;;;8.00;99.90;;;;;;5050452;28;20032;-84
2021/01/19 11:06:39;;;;;;;11.30;8.65;;;8.10;99.90;;;;;;5045569;28;20575;-84
2021/01/19 11:09:08;;;;;;;13.40;8.93;;;8.10;99.90;;;;;;5029931;28;20036;-85
2021/01/19 11:11:36;;;;;;;13.25;9.35;;;8.20;99.90;;;;;;5053654;28;20040;-84
2021/01/19 11:14:04;;;;;;;12.18;8.23;;;8.30;99.90;;;;;;5050549;28;20474;-81
2021/01/19 11:16:37;;;;;;;11.32;8.07;;;8.40;99.90;;;;;;5062289;28;20041;-83
2021/01/19 11:19:14;;;;;;;11.38;7.00;;;8.50;99.90;;;;;;5046067;28;20044;-84
2021/01/19 11:21:42;;;;;;;11.23;7.45;;;8.50;99.90;;;;;;5031135;28;20035;-82
2021/01/19 11:24:11;;;;;;;10.15;7.22;;;8.60;99.90;;;;;;5048257;28;20502;-83
2021/01/19 11:26:40;;;;;;;8.93;5.88;;;8.60;99.90;;;;;;5045831;28;20040;-82
2021/01/19 11:29:08;;;;;;;10.18;7.55;;;8.70;99.90;;;;;;5045216;28;20037;-82
2021/01/19 11:31:36;;;;;;;9.57;7.13;;;8.80;99.90;;;;;;5029063;28;20064;-82
2021/01/19 11:34:05;;;;;;;8.73;6.63;;;8.80;99.90;;;;;;5042461;28;20044;-82
2021/01/19 11:36:36;;;;;;;9.60;6.63;;;8.80;99.90;;;;;;5063988;28;20064;-82
2021/01/19 11:39:06;;;;;;;9.48;6.38;;;8.90;99.90;;;;;;5065280;28;20067;-83
2021/01/19 11:41:36;;;;;;;12.25;7.93;;;8.90;99.90;;;;;;5043019;28;20045;-83
2021/01/19 11:44:04;;;;;;;10.10;7.72;;;9.00;99.90;;;;;;5059022;28;20051;-85
2021/01/19 11:49:21;;;;;;;10.00;8.50;;;9.00;99.90;;;;;;5034739;28;20041;-85
2021/01/19 11:51:48;;;;;;;10.52;8.20;;;9.00;99.90;;;;;;5047114;28;20043;-83
2021/01/19 11:54:15;;;;;;;10.68;7.97;;;9.10;99.90;;;;;;5047353;28;20475;-84
2021/01/19 11:56:44;;;;;;;12.35;8.38;;;9.10;99.90;;;;;;5063441;28;20487;-84
2021/01/19 11:59:12;;;;;;;13.65;9.40;;;9.10;99.90;;;;;;5066863;28;20877;-82
2021/01/19 12:01:39;;;;;;;9.68;7.75;;;9.10;99.90;;;;;;5031365;28;20045;-87
2021/01/19 12:04:10;;;;;;;14.27;10.10;;;9.10;99.90;;;;;;5014052;28;20534;-83
2021/01/19 12:06:47;;;;;;;13.73;9.80;;;9.20;99.90;;;;;;5066049;28;20039;-83
2021/01/19 12:09:25;;;;;;;10.75;7.80;;;9.20;99.90;;;;;;5032253;28;20044;-84
2021/01/19 12:11:54;;;;;;;12.82;9.57;;;9.20;99.90;;;;;;5024634;28;20052;-83
2021/01/19 12:14:22;;;;;;;14.05;9.35;;;9.20;99.90;;;;;;5039288;28;20049;-87
2021/01/19 12:16:53;;;;;;;12.38;9.45;;;9.30;99.90;;;;;;5011451;28;20041;-86
2021/01/19 12:19:24;;;;;;;15.90;11.02;;;9.30;99.90;;;;;;5018145;28;20425;-86
2021/01/19 12:21:53;;;;;;;12.25;8.93;;;9.30;99.90;;;;;;4977396;28;20046;-86
2021/01/19 12:24:21;;;;;;;14.70;10.07;;;9.30;99.90;;;;;;4949918;28;20049;-87
2021/01/19 12:26:58;;;;;;;12.90;8.77;;;9.40;99.90;;;;;;4992097;28;20046;-88
2021/01/19 12:29:26;;;;;;;14.65;8.93;;;9.40;99.90;;;;;;4969025;28;20041;-87
2021/01/19 12:32:03;;;;;;;12.73;9.15;;;9.40;99.90;;;;;;4962869;28;20108;-87
2021/01/19 12:34:33;;;;;;;16.13;10.05;;;9.40;99.90;;;;;;4985989;28;20538;-88
2021/01/19 12:37:00;;;;;;;17.98;11.00;;;9.40;99.90;;;;;;4961269;28;20106;-87
2021/01/19 12:39:29;;;;;;;15.32;10.90;;;9.40;99.90;;;;;;4951094;28;20049;-89
2021/01/19 12:41:56;;;;;;;15.75;10.65;;;9.40;99.90;;;;;;5006091;28;20054;-88
2021/01/19 12:44:23;;;;;;;22.15;13.05;;;9.50;99.90;;;;;;5022945;28;20052;-87
2021/01/19 12:46:56;;;;;;;20.45;13.32;;;9.40;99.90;;;;;;4976921;28;20054;-90
2021/01/19 12:49:23;;;;;;;26.05;15.20;;;9.50;99.90;;;;;;5007513;28;20064;-86
2021/01/19 12:51:49;;;;;;;27.02;14.77;;;9.50;99.90;;;;;;5029482;28;20049;-86
2021/01/19 12:54:16;;;;;;;23.70;14.43;;;9.50;99.90;;;;;;5037886;28;20037;-88
2021/01/19 12:56:43;;;;;;;26.75;14.77;;;9.50;99.90;;;;;;5033470;28;20032;-89
2021/01/19 12:59:10;;;;;;;23.52;14.02;;;9.60;99.90;;;;;;5055386;28;20048;-88
2021/01/19 13:01:37;;;;;;;24.92;14.48;;;9.60;99.90;;;;;;5036357;28;20032;-88
2021/01/19 13:04:05;;;;;;;27.15;15.80;;;9.60;99.90;;;;;;5023546;28;20036;-87
2021/01/19 13:06:32;;;;;;;21.10;13.02;;;9.60;99.90;;;;;;5033256;28;20045;-87
2021/01/19 13:08:58;;;;;;;22.23;12.68;;;9.70;99.90;;;;;;5031340;28;20395;-88
2021/01/19 13:11:25;;;;;;;22.88;12.13;;;9.70;99.90;;;;;;5050665;28;20036;-87